sensor_id;sensor_type;location;lat;lon;timestamp;P1;durP1;ratioP1;P2;durP2;ratioP2
78508;SDS011;67802;50.846;7.958;2024-03-08T00:01:52;6.63;;;3.92;;
78508;SDS011;67802;50.846;7.958;2024-03-08T00:04:17;7.57;;;4.32;;
78508;SDS011;67802;50.846;7.958;2024-03-08T00:06:43;7.05;;;3.90;;
78508;SDS011;67802;50.846;7.958;2024-03-08T00:09:10;8.43;;;4.47;;
78508;SDS011;67802;50.846;7.958;2024-03-08T00:11:36;7.28;;;4.20;;
78508;SDS011;67802;50.846;7.958;2024-03-08T00:14:01;7.47;;;4.27;;
78508;SDS011;67802;50.846;7.958;2024-03-08T00:16:27;8.45;;;4.50;;
78508;SDS011;67802;50.846;7.958;2024-03-08T00:18:52;7.55;;;4.30;;
78508;SDS011;67802;50.846;7.958;2024-03-08T00:21:17;7.65;;;4.10;;
78508;SDS011;67802;50.846;7.958;2024-03-08T00:23:43;7.28;;;4.20;;
78508;SDS011;67802;50.846;7.958;2024-03-08T00:26:08;7.97;;;4.68;;
78508;SDS011;67802;50.846;7.958;2024-03-08T00:28:34;8.85;;;4.00;;
78508;SDS011;67802;50.846;7.958;2024-03-08T00:30:59;7.32;;;4.30;;
78508;SDS011;67802;50.846;7.958;2024-03-08T00:33:25;6.65;;;3.85;;
78508;SDS011;67802;50.846;7.958;2024-03-08T00:35:50;6.78;;;4.18;;
78508;SDS011;67802;50.846;7.958;2024-03-08T00:38:16;7.82;;;4.32;;
78508;SDS011;67802;50.846;7.958;2024-03-08T00:40:41;8.30;;;4.28;;
78508;SDS011;67802;50.846;7.958;2024-03-08T00:43:06;7.00;;;4.15;;
78508;SDS011;67802;50.846;7.958;2024-03-08T00:45:32;6.85;;;4.07;;
78508;SDS011;67802;50.846;7.958;2024-03-08T00:47:57;6.50;;;3.78;;
78508;SDS011;67802;50.846;7.958;2024-03-08T00:50:22;6.55;;;3.67;;
78508;SDS011;67802;50.846;7.958;2024-03-08T00:52:48;7.50;;;3.97;;
78508;SDS011;67802;50.846;7.958;2024-03-08T00:55:13;6.50;;;3.85;;
78508;SDS011;67802;50.846;7.958;2024-03-08T00:57:38;7.07;;;4.25;;
78508;SDS011;67802;50.846;7.958;2024-03-08T01:00:05;6.72;;;4.30;;
78508;SDS011;67802;50.846;7.958;2024-03-08T01:02:34;6.93;;;4.07;;
78508;SDS011;67802;50.846;7.958;2024-03-08T01:05:00;6.90;;;4.15;;
78508;SDS011;67802;50.846;7.958;2024-03-08T01:07:26;7.43;;;3.85;;
78508;SDS011;67802;50.846;7.958;2024-03-08T01:09:51;10.18;;;3.88;;
78508;SDS011;67802;50.846;7.958;2024-03-08T01:12:17;6.47;;;3.97;;
78508;SDS011;67802;50.846;7.958;2024-03-08T01:14:42;6.55;;;3.85;;
78508;SDS011;67802;50.846;7.958;2024-03-08T01:17:08;7.32;;;4.10;;
78508;SDS011;67802;50.846;7.958;2024-03-08T01:19:34;6.78;;;4.13;;
78508;SDS011;67802;50.846;7.958;2024-03-08T01:22:00;7.05;;;3.80;;
78508;SDS011;67802;50.846;7.958;2024-03-08T01:24:25;9.35;;;3.97;;
78508;SDS011;67802;50.846;7.958;2024-03-08T01:26:51;6.35;;;3.72;;
78508;SDS011;67802;50.846;7.958;2024-03-08T01:29:16;6.82;;;3.83;;
78508;SDS011;67802;50.846;7.958;2024-03-08T01:31:42;7.43;;;4.28;;
78508;SDS011;67802;50.846;7.958;2024-03-08T01:34:08;6.70;;;3.97;;
78508;SDS011;67802;50.846;7.958;2024-03-08T01:36:33;7.53;;;3.85;;
78508;SDS011;67802;50.846;7.958;2024-03-08T01:38:58;6.57;;;3.88;;
78508;SDS011;67802;50.846;7.958;2024-03-08T01:41:23;7.53;;;4.07;;
78508;SDS011;67802;50.846;7.958;2024-03-08T01:43:49;6.57;;;3.70;;
78508;SDS011;67802;50.846;7.958;2024-03-08T01:46:15;6.22;;;3.63;;
78508;SDS011;67802;50.846;7.958;2024-03-08T01:48:44;7.30;;;4.10;;
78508;SDS011;67802;50.846;7.958;2024-03-08T01:51:10;6.95;;;3.90;;
78508;SDS011;67802;50.846;7.958;2024-03-08T01:53:37;6.70;;;3.92;;
78508;SDS011;67802;50.846;7.958;2024-03-08T01:56:02;6.10;;;3.60;;
78508;SDS011;67802;50.846;7.958;2024-03-08T01:58:28;6.47;;;4.05;;
78508;SDS011;67802;50.846;7.958;2024-03-08T02:00:54;8.38;;;4.22;;
78508;SDS011;67802;50.846;7.958;2024-03-08T02:03:21;6.72;;;3.78;;
78508;SDS011;67802;50.846;7.958;2024-03-08T02:05:47;7.05;;;4.13;;
78508;SDS011;67802;50.846;7.958;2024-03-08T02:08:13;7.10;;;4.10;;
78508;SDS011;67802;50.846;7.958;2024-03-08T02:10:40;7.95;;;4.35;;
78508;SDS011;67802;50.846;7.958;2024-03-08T02:13:09;9.23;;;4.40;;
78508;SDS011;67802;50.846;7.958;2024-03-08T02:15:51;6.32;;;3.90;;
78508;SDS011;67802;50.846;7.958;2024-03-08T02:18:27;6.15;;;3.80;;
78508;SDS011;67802;50.846;7.958;2024-03-08T02:20:58;8.90;;;4.40;;
78508;SDS011;67802;50.846;7.958;2024-03-08T02:23:24;6.82;;;4.22;;
78508;SDS011;67802;50.846;7.958;2024-03-08T02:25:51;7.68;;;4.22;;
78508;SDS011;67802;50.846;7.958;2024-03-08T02:28:18;8.52;;;5.15;;
78508;SDS011;67802;50.846;7.958;2024-03-08T02:30:43;8.77;;;4.53;;
78508;SDS011;67802;50.846;7.958;2024-03-08T02:33:09;8.20;;;4.50;;
78508;SDS011;67802;50.846;7.958;2024-03-08T02:35:35;6.60;;;4.10;;
78508;SDS011;67802;50.846;7.958;2024-03-08T02:38:00;6.80;;;3.78;;
78508;SDS011;67802;50.846;7.958;2024-03-08T02:40:26;7.45;;;4.68;;
78508;SDS011;67802;50.846;7.958;2024-03-08T02:42:52;7.38;;;4.20;;
78508;SDS011;67802;50.846;7.958;2024-03-08T02:45:17;7.80;;;4.32;;
78508;SDS011;67802;50.846;7.958;2024-03-08T02:47:43;7.45;;;3.97;;
78508;SDS011;67802;50.846;7.958;2024-03-08T02:50:08;7.07;;;4.28;;
78508;SDS011;67802;50.846;7.958;2024-03-08T02:52:34;8.55;;;4.80;;
78508;SDS011;67802;50.846;7.958;2024-03-08T02:55:00;7.57;;;4.30;;
78508;SDS011;67802;50.846;7.958;2024-03-08T02:57:26;7.35;;;4.53;;
78508;SDS011;67802;50.846;7.958;2024-03-08T02:59:53;8.05;;;4.43;;
78508;SDS011;67802;50.846;7.958;2024-03-08T03:02:18;7.60;;;4.22;;
78508;SDS011;67802;50.846;7.958;2024-03-08T03:04:44;7.82;;;4.68;;
78508;SDS011;67802;50.846;7.958;2024-03-08T03:07:09;8.88;;;4.90;;
78508;SDS011;67802;50.846;7.958;2024-03-08T03:09:34;8.13;;;4.50;;
78508;SDS011;67802;50.846;7.958;2024-03-08T03:12:00;7.65;;;4.50;;
78508;SDS011;67802;50.846;7.958;2024-03-08T03:14:25;8.32;;;4.38;;
78508;SDS011;67802;50.846;7.958;2024-03-08T03:16:53;7.50;;;4.28;;
78508;SDS011;67802;50.846;7.958;2024-03-08T03:19:19;8.25;;;4.60;;
78508;SDS011;67802;50.846;7.958;2024-03-08T03:21:45;7.25;;;4.40;;
78508;SDS011;67802;50.846;7.958;2024-03-08T03:24:10;8.65;;;4.70;;
78508;SDS011;67802;50.846;7.958;2024-03-08T03:26:37;7.72;;;4.63;;
78508;SDS011;67802;50.846;7.958;2024-03-08T03:29:06;7.82;;;4.50;;
78508;SDS011;67802;50.846;7.958;2024-03-08T03:31:33;8.07;;;4.70;;
78508;SDS011;67802;50.846;7.958;2024-03-08T03:33:59;8.27;;;5.30;;
78508;SDS011;67802;50.846;7.958;2024-03-08T03:36:27;8.05;;;4.70;;
78508;SDS011;67802;50.846;7.958;2024-03-08T03:38:55;7.72;;;4.43;;
78508;SDS011;67802;50.846;7.958;2024-03-08T03:41:38;8.73;;;4.85;;
78508;SDS011;67802;50.846;7.958;2024-03-08T03:44:04;7.20;;;4.32;;
78508;SDS011;67802;50.846;7.958;2024-03-08T03:46:31;7.50;;;4.50;;
78508;SDS011;67802;50.846;7.958;2024-03-08T03:48:56;7.35;;;4.28;;
78508;SDS011;67802;50.846;7.958;2024-03-08T03:51:22;7.93;;;4.87;;
78508;SDS011;67802;50.846;7.958;2024-03-08T03:53:47;7.57;;;4.47;;
78508;SDS011;67802;50.846;7.958;2024-03-08T03:56:13;8.05;;;4.63;;
78508;SDS011;67802;50.846;7.958;2024-03-08T03:58:38;7.30;;;4.50;;
78508;SDS011;67802;50.846;7.958;2024-03-08T04:01:04;9.48;;;4.45;;
78508;SDS011;67802;50.846;7.958;2024-03-08T04:03:30;7.22;;;4.40;;
78508;SDS011;67802;50.846;7.958;2024-03-08T04:05:55;7.55;;;4.63;;
78508;SDS011;67802;50.846;7.958;2024-03-08T04:08:21;8.10;;;4.60;;
78508;SDS011;67802;50.846;7.958;2024-03-08T04:10:46;7.82;;;4.57;;
78508;SDS011;67802;50.846;7.958;2024-03-08T04:13:11;7.50;;;4.55;;
78508;SDS011;67802;50.846;7.958;2024-03-08T04:15:37;7.90;;;4.80;;
78508;SDS011;67802;50.846;7.958;2024-03-08T04:18:03;7.57;;;4.57;;
78508;SDS011;67802;50.846;7.958;2024-03-08T04:20:28;8.30;;;4.82;;
78508;SDS011;67802;50.846;7.958;2024-03-08T04:22:53;7.87;;;4.47;;
78508;SDS011;67802;50.846;7.958;2024-03-08T04:25:19;7.88;;;4.60;;
78508;SDS011;67802;50.846;7.958;2024-03-08T04:27:45;6.95;;;4.57;;
78508;SDS011;67802;50.846;7.958;2024-03-08T04:30:12;7.93;;;4.57;;
78508;SDS011;67802;50.846;7.958;2024-03-08T04:32:37;7.07;;;4.43;;
78508;SDS011;67802;50.846;7.958;2024-03-08T04:35:02;7.13;;;4.22;;
78508;SDS011;67802;50.846;7.958;2024-03-08T04:37:28;7.85;;;4.40;;
78508;SDS011;67802;50.846;7.958;2024-03-08T04:39:57;7.47;;;4.35;;
78508;SDS011;67802;50.846;7.958;2024-03-08T04:42:22;7.57;;;3.92;;
78508;SDS011;67802;50.846;7.958;2024-03-08T04:44:48;7.32;;;4.15;;
78508;SDS011;67802;50.846;7.958;2024-03-08T04:47:13;6.82;;;4.28;;
78508;SDS011;67802;50.846;7.958;2024-03-08T04:49:38;7.03;;;4.00;;
78508;SDS011;67802;50.846;7.958;2024-03-08T04:52:04;8.45;;;4.50;;
78508;SDS011;67802;50.846;7.958;2024-03-08T04:54:30;7.13;;;4.50;;
78508;SDS011;67802;50.846;7.958;2024-03-08T04:56:56;9.10;;;4.90;;
78508;SDS011;67802;50.846;7.958;2024-03-08T04:59:22;6.88;;;4.20;;
78508;SDS011;67802;50.846;7.958;2024-03-08T05:01:47;8.65;;;4.70;;
78508;SDS011;67802;50.846;7.958;2024-03-08T05:04:15;6.30;;;3.78;;
78508;SDS011;67802;50.846;7.958;2024-03-08T05:06:40;8.07;;;4.20;;
78508;SDS011;67802;50.846;7.958;2024-03-08T05:09:06;7.93;;;4.43;;
78508;SDS011;67802;50.846;7.958;2024-03-08T05:11:39;6.82;;;4.28;;
78508;SDS011;67802;50.846;7.958;2024-03-08T05:14:05;8.52;;;4.78;;
78508;SDS011;67802;50.846;7.958;2024-03-08T05:16:30;7.80;;;4.35;;
78508;SDS011;67802;50.846;7.958;2024-03-08T05:18:56;7.50;;;3.90;;
78508;SDS011;67802;50.846;7.958;2024-03-08T05:21:21;7.03;;;4.30;;
78508;SDS011;67802;50.846;7.958;2024-03-08T05:23:47;8.10;;;4.55;;
78508;SDS011;67802;50.846;7.958;2024-03-08T05:26:12;7.22;;;4.40;;
78508;SDS011;67802;50.846;7.958;2024-03-08T05:28:39;7.43;;;4.05;;
78508;SDS011;67802;50.846;7.958;2024-03-08T05:31:04;6.80;;;3.97;;
78508;SDS011;67802;50.846;7.958;2024-03-08T05:33:30;7.32;;;4.22;;
78508;SDS011;67802;50.846;7.958;2024-03-08T05:35:55;6.90;;;3.95;;
78508;SDS011;67802;50.846;7.958;2024-03-08T05:38:20;6.85;;;4.03;;
78508;SDS011;67802;50.846;7.958;2024-03-08T05:40:46;6.25;;;3.90;;
78508;SDS011;67802;50.846;7.958;2024-03-08T05:43:11;7.00;;;4.13;;
78508;SDS011;67802;50.846;7.958;2024-03-08T05:45:37;7.10;;;3.88;;
78508;SDS011;67802;50.846;7.958;2024-03-08T05:48:02;7.30;;;3.92;;
78508;SDS011;67802;50.846;7.958;2024-03-08T05:50:27;7.20;;;4.10;;
78508;SDS011;67802;50.846;7.958;2024-03-08T05:52:53;8.18;;;4.30;;
78508;SDS011;67802;50.846;7.958;2024-03-08T05:55:18;7.25;;;3.95;;
78508;SDS011;67802;50.846;7.958;2024-03-08T05:57:43;6.85;;;4.30;;
78508;SDS011;67802;50.846;7.958;2024-03-08T06:00:09;6.60;;;3.93;;
78508;SDS011;67802;50.846;7.958;2024-03-08T06:02:40;5.72;;;3.50;;
78508;SDS011;67802;50.846;7.958;2024-03-08T06:05:07;7.15;;;3.95;;
78508;SDS011;67802;50.846;7.958;2024-03-08T06:07:34;6.00;;;3.92;;
78508;SDS011;67802;50.846;7.958;2024-03-08T06:09:59;6.63;;;4.15;;
78508;SDS011;67802;50.846;7.958;2024-03-08T06:12:25;7.60;;;4.53;;
78508;SDS011;67802;50.846;7.958;2024-03-08T06:14:53;6.45;;;3.97;;
78508;SDS011;67802;50.846;7.958;2024-03-08T06:17:19;6.15;;;3.80;;
78508;SDS011;67802;50.846;7.958;2024-03-08T06:19:44;7.17;;;3.90;;
78508;SDS011;67802;50.846;7.958;2024-03-08T06:22:11;6.93;;;4.00;;
78508;SDS011;67802;50.846;7.958;2024-03-08T06:24:36;7.93;;;4.00;;
78508;SDS011;67802;50.846;7.958;2024-03-08T06:27:03;7.70;;;4.30;;
78508;SDS011;67802;50.846;7.958;2024-03-08T06:29:28;8.45;;;4.15;;
78508;SDS011;67802;50.846;7.958;2024-03-08T06:31:54;7.10;;;4.20;;
78508;SDS011;67802;50.846;7.958;2024-03-08T06:34:20;7.07;;;3.58;;
78508;SDS011;67802;50.846;7.958;2024-03-08T06:36:46;7.45;;;3.95;;
78508;SDS011;67802;50.846;7.958;2024-03-08T06:39:11;5.70;;;3.43;;
78508;SDS011;67802;50.846;7.958;2024-03-08T06:41:36;6.50;;;3.63;;
78508;SDS011;67802;50.846;7.958;2024-03-08T06:44:02;6.43;;;3.88;;
78508;SDS011;67802;50.846;7.958;2024-03-08T06:46:28;7.28;;;4.10;;
78508;SDS011;67802;50.846;7.958;2024-03-08T06:48:53;6.85;;;3.80;;
78508;SDS011;67802;50.846;7.958;2024-03-08T06:51:18;6.25;;;3.72;;
78508;SDS011;67802;50.846;7.958;2024-03-08T06:53:44;6.72;;;3.58;;
78508;SDS011;67802;50.846;7.958;2024-03-08T06:56:09;7.00;;;4.07;;
78508;SDS011;67802;50.846;7.958;2024-03-08T06:58:35;6.38;;;3.83;;
78508;SDS011;67802;50.846;7.958;2024-03-08T07:01:00;6.90;;;3.75;;
78508;SDS011;67802;50.846;7.958;2024-03-08T07:03:28;6.75;;;4.05;;
78508;SDS011;67802;50.846;7.958;2024-03-08T07:05:54;6.85;;;4.10;;
78508;SDS011;67802;50.846;7.958;2024-03-08T07:08:21;8.02;;;4.20;;
78508;SDS011;67802;50.846;7.958;2024-03-08T07:10:48;6.80;;;3.72;;
78508;SDS011;67802;50.846;7.958;2024-03-08T07:13:14;6.78;;;3.75;;
78508;SDS011;67802;50.846;7.958;2024-03-08T07:15:39;6.20;;;3.60;;
78508;SDS011;67802;50.846;7.958;2024-03-08T07:18:05;6.35;;;3.90;;
78508;SDS011;67802;50.846;7.958;2024-03-08T07:20:30;6.47;;;3.63;;
78508;SDS011;67802;50.846;7.958;2024-03-08T07:22:56;7.28;;;4.00;;
78508;SDS011;67802;50.846;7.958;2024-03-08T07:25:21;6.75;;;3.83;;
78508;SDS011;67802;50.846;7.958;2024-03-08T07:30:13;7.90;;;4.28;;
78508;SDS011;67802;50.846;7.958;2024-03-08T07:32:58;6.68;;;3.67;;
78508;SDS011;67802;50.846;7.958;2024-03-08T07:35:23;6.88;;;3.70;;
78508;SDS011;67802;50.846;7.958;2024-03-08T07:37:51;7.55;;;4.00;;
78508;SDS011;67802;50.846;7.958;2024-03-08T07:40:18;7.03;;;4.10;;
78508;SDS011;67802;50.846;7.958;2024-03-08T07:42:43;7.00;;;3.87;;
78508;SDS011;67802;50.846;7.958;2024-03-08T07:45:08;6.60;;;3.80;;
78508;SDS011;67802;50.846;7.958;2024-03-08T07:47:34;6.97;;;4.20;;
78508;SDS011;67802;50.846;7.958;2024-03-08T07:50:01;6.75;;;3.70;;
78508;SDS011;67802;50.846;7.958;2024-03-08T07:52:27;6.95;;;4.18;;
78508;SDS011;67802;50.846;7.958;2024-03-08T07:54:52;6.47;;;3.83;;
78508;SDS011;67802;50.846;7.958;2024-03-08T07:57:18;6.20;;;3.70;;
78508;SDS011;67802;50.846;7.958;2024-03-08T07:59:44;7.28;;;3.90;;
78508;SDS011;67802;50.846;7.958;2024-03-08T08:02:09;7.47;;;4.18;;
78508;SDS011;67802;50.846;7.958;2024-03-08T08:04:35;7.18;;;4.30;;
78508;SDS011;67802;50.846;7.958;2024-03-08T08:07:00;7.00;;;4.60;;
78508;SDS011;67802;50.846;7.958;2024-03-08T08:09:26;7.60;;;4.28;;
78508;SDS011;67802;50.846;7.958;2024-03-08T08:11:59;7.80;;;4.00;;
78508;SDS011;67802;50.846;7.958;2024-03-08T08:14:24;9.15;;;4.50;;
78508;SDS011;67802;50.846;7.958;2024-03-08T08:16:50;7.53;;;4.60;;
78508;SDS011;67802;50.846;7.958;2024-03-08T08:19:17;7.80;;;4.68;;
78508;SDS011;67802;50.846;7.958;2024-03-08T08:21:43;7.28;;;4.13;;
78508;SDS011;67802;50.846;7.958;2024-03-08T08:24:09;7.90;;;4.45;;
78508;SDS011;67802;50.846;7.958;2024-03-08T08:26:35;7.75;;;4.60;;
78508;SDS011;67802;50.846;7.958;2024-03-08T08:29:01;7.70;;;4.50;;
78508;SDS011;67802;50.846;7.958;2024-03-08T08:31:26;7.63;;;4.80;;
78508;SDS011;67802;50.846;7.958;2024-03-08T08:33:52;7.68;;;4.20;;
78508;SDS011;67802;50.846;7.958;2024-03-08T08:36:23;8.02;;;4.68;;
78508;SDS011;67802;50.846;7.958;2024-03-08T08:38:53;7.97;;;4.40;;
78508;SDS011;67802;50.846;7.958;2024-03-08T08:41:19;8.55;;;4.43;;
78508;SDS011;67802;50.846;7.958;2024-03-08T08:43:46;8.45;;;4.35;;
78508;SDS011;67802;50.846;7.958;2024-03-08T08:46:11;7.72;;;4.55;;
78508;SDS011;67802;50.846;7.958;2024-03-08T08:48:38;8.00;;;4.63;;
78508;SDS011;67802;50.846;7.958;2024-03-08T08:51:06;8.07;;;4.53;;
78508;SDS011;67802;50.846;7.958;2024-03-08T08:53:31;7.43;;;4.50;;
78508;SDS011;67802;50.846;7.958;2024-03-08T08:55:56;7.70;;;4.87;;
78508;SDS011;67802;50.846;7.958;2024-03-08T08:58:22;7.77;;;4.57;;
78508;SDS011;67802;50.846;7.958;2024-03-08T09:00:47;7.95;;;4.60;;
78508;SDS011;67802;50.846;7.958;2024-03-08T09:03:12;7.85;;;4.45;;
78508;SDS011;67802;50.846;7.958;2024-03-08T09:05:38;7.88;;;4.75;;
78508;SDS011;67802;50.846;7.958;2024-03-08T09:08:03;6.82;;;4.40;;
78508;SDS011;67802;50.846;7.958;2024-03-08T09:10:28;7.93;;;4.50;;
78508;SDS011;67802;50.846;7.958;2024-03-08T09:12:54;7.83;;;4.67;;
78508;SDS011;67802;50.846;7.958;2024-03-08T09:15:20;6.75;;;4.32;;
78508;SDS011;67802;50.846;7.958;2024-03-08T09:17:45;8.65;;;4.68;;
78508;SDS011;67802;50.846;7.958;2024-03-08T09:20:11;7.70;;;4.32;;
78508;SDS011;67802;50.846;7.958;2024-03-08T09:22:39;8.70;;;4.70;;
78508;SDS011;67802;50.846;7.958;2024-03-08T09:25:05;8.23;;;4.68;;
78508;SDS011;67802;50.846;7.958;2024-03-08T09:27:32;8.70;;;4.72;;
78508;SDS011;67802;50.846;7.958;2024-03-08T09:29:58;8.80;;;5.18;;
78508;SDS011;67802;50.846;7.958;2024-03-08T09:32:24;7.95;;;4.53;;
78508;SDS011;67802;50.846;7.958;2024-03-08T09:34:49;8.30;;;5.30;;
78508;SDS011;67802;50.846;7.958;2024-03-08T09:37:15;7.72;;;4.60;;
78508;SDS011;67802;50.846;7.958;2024-03-08T09:39:41;8.48;;;4.53;;
78508;SDS011;67802;50.846;7.958;2024-03-08T09:42:06;8.05;;;4.68;;
78508;SDS011;67802;50.846;7.958;2024-03-08T09:44:31;7.15;;;4.30;;
78508;SDS011;67802;50.846;7.958;2024-03-08T09:47:00;7.50;;;4.38;;
78508;SDS011;67802;50.846;7.958;2024-03-08T09:49:27;8.27;;;4.82;;
78508;SDS011;67802;50.846;7.958;2024-03-08T09:51:53;7.57;;;4.50;;
78508;SDS011;67802;50.846;7.958;2024-03-08T09:54:20;7.28;;;4.35;;
78508;SDS011;67802;50.846;7.958;2024-03-08T09:56:47;9.02;;;4.85;;
78508;SDS011;67802;50.846;7.958;2024-03-08T09:59:14;8.73;;;4.88;;
78508;SDS011;67802;50.846;7.958;2024-03-08T10:01:58;7.72;;;4.50;;
78508;SDS011;67802;50.846;7.958;2024-03-08T10:04:24;8.07;;;4.78;;
78508;SDS011;67802;50.846;7.958;2024-03-08T10:06:51;7.53;;;4.50;;
78508;SDS011;67802;50.846;7.958;2024-03-08T10:09:17;7.88;;;4.60;;
78508;SDS011;67802;50.846;7.958;2024-03-08T10:11:42;8.15;;;4.78;;
78508;SDS011;67802;50.846;7.958;2024-03-08T10:14:11;8.13;;;4.80;;
78508;SDS011;67802;50.846;7.958;2024-03-08T10:16:37;8.68;;;4.78;;
78508;SDS011;67802;50.846;7.958;2024-03-08T10:19:04;8.40;;;4.70;;
78508;SDS011;67802;50.846;7.958;2024-03-08T10:21:30;6.95;;;4.30;;
78508;SDS011;67802;50.846;7.958;2024-03-08T10:23:57;8.10;;;4.68;;
78508;SDS011;67802;50.846;7.958;2024-03-08T10:26:24;8.52;;;4.25;;
78508;SDS011;67802;50.846;7.958;2024-03-08T10:28:50;7.05;;;4.10;;
78508;SDS011;67802;50.846;7.958;2024-03-08T10:31:18;7.78;;;4.25;;
78508;SDS011;67802;50.846;7.958;2024-03-08T10:33:44;6.90;;;4.25;;
78508;SDS011;67802;50.846;7.958;2024-03-08T10:36:10;7.47;;;4.38;;
78508;SDS011;67802;50.846;7.958;2024-03-08T10:38:38;7.28;;;4.00;;
78508;SDS011;67802;50.846;7.958;2024-03-08T10:41:08;8.63;;;4.80;;
78508;SDS011;67802;50.846;7.958;2024-03-08T10:49:04;9.80;;;5.53;;
78508;SDS011;67802;50.846;7.958;2024-03-08T10:51:37;13.68;;;7.68;;
78508;SDS011;67802;50.846;7.958;2024-03-08T10:54:03;13.93;;;8.18;;
78508;SDS011;67802;50.846;7.958;2024-03-08T10:56:32;12.88;;;7.70;;
78508;SDS011;67802;50.846;7.958;2024-03-08T10:58:57;13.33;;;7.20;;
78508;SDS011;67802;50.846;7.958;2024-03-08T11:01:23;12.43;;;6.68;;
78508;SDS011;67802;50.846;7.958;2024-03-08T11:03:51;10.88;;;5.97;;
78508;SDS011;67802;50.846;7.958;2024-03-08T11:07:03;10.77;;;6.07;;
78508;SDS011;67802;50.846;7.958;2024-03-08T11:09:08;10.10;;;5.97;;
78508;SDS011;67802;50.846;7.958;2024-03-08T11:17:08;11.60;;;6.38;;
78508;SDS011;67802;50.846;7.958;2024-03-08T11:19:34;10.65;;;6.50;;
78508;SDS011;67802;50.846;7.958;2024-03-08T11:22:00;10.88;;;6.43;;
78508;SDS011;67802;50.846;7.958;2024-03-08T11:24:27;9.50;;;5.70;;
78508;SDS011;67802;50.846;7.958;2024-03-08T11:26:54;9.90;;;5.78;;
78508;SDS011;67802;50.846;7.958;2024-03-08T11:34:40;10.65;;;5.82;;
78508;SDS011;67802;50.846;7.958;2024-03-08T11:37:12;7.93;;;5.00;;
78508;SDS011;67802;50.846;7.958;2024-03-08T11:39:39;9.88;;;5.45;;
78508;SDS011;67802;50.846;7.958;2024-03-08T11:42:11;11.38;;;5.55;;
78508;SDS011;67802;50.846;7.958;2024-03-08T11:44:36;9.48;;;5.57;;
78508;SDS011;67802;50.846;7.958;2024-03-08T11:47:02;9.82;;;5.53;;
78508;SDS011;67802;50.846;7.958;2024-03-08T11:49:31;9.07;;;5.25;;
78508;SDS011;67802;50.846;7.958;2024-03-08T11:51:56;10.65;;;5.45;;
78508;SDS011;67802;50.846;7.958;2024-03-08T11:54:22;9.73;;;5.05;;
78508;SDS011;67802;50.846;7.958;2024-03-08T11:56:48;9.40;;;5.30;;
78508;SDS011;67802;50.846;7.958;2024-03-08T11:59:17;10.40;;;5.68;;
78508;SDS011;67802;50.846;7.958;2024-03-08T12:01:42;9.82;;;5.63;;
78508;SDS011;67802;50.846;7.958;2024-03-08T12:04:11;8.15;;;5.13;;
78508;SDS011;67802;50.846;7.958;2024-03-08T12:06:40;9.73;;;5.20;;
78508;SDS011;67802;50.846;7.958;2024-03-08T12:09:09;8.45;;;5.32;;
78508;SDS011;67802;50.846;7.958;2024-03-08T12:11:38;9.93;;;5.68;;
78508;SDS011;67802;50.846;7.958;2024-03-08T12:14:04;9.95;;;5.50;;
78508;SDS011;67802;50.846;7.958;2024-03-08T12:16:30;8.55;;;5.22;;
78508;SDS011;67802;50.846;7.958;2024-03-08T12:18:55;9.05;;;5.40;;
78508;SDS011;67802;50.846;7.958;2024-03-08T12:21:21;8.30;;;4.68;;
78508;SDS011;67802;50.846;7.958;2024-03-08T12:23:51;8.38;;;4.75;;
78508;SDS011;67802;50.846;7.958;2024-03-08T12:26:27;8.27;;;4.75;;
78508;SDS011;67802;50.846;7.958;2024-03-08T12:28:53;7.50;;;4.80;;
78508;SDS011;67802;50.846;7.958;2024-03-08T12:31:18;8.57;;;5.22;;
78508;SDS011;67802;50.846;7.958;2024-03-08T12:33:53;9.38;;;4.88;;
78508;SDS011;67802;50.846;7.958;2024-03-08T12:36:21;8.35;;;4.97;;
78508;SDS011;67802;50.846;7.958;2024-03-08T12:38:46;9.13;;;5.13;;
78508;SDS011;67802;50.846;7.958;2024-03-08T12:41:13;8.43;;;4.80;;
78508;SDS011;67802;50.846;7.958;2024-03-08T12:43:39;8.43;;;4.78;;
78508;SDS011;67802;50.846;7.958;2024-03-08T12:46:04;8.55;;;4.95;;
78508;SDS011;67802;50.846;7.958;2024-03-08T12:48:33;8.00;;;4.55;;
78508;SDS011;67802;50.846;7.958;2024-03-08T12:51:05;8.55;;;4.30;;
78508;SDS011;67802;50.846;7.958;2024-03-08T12:53:32;7.93;;;4.53;;
78508;SDS011;67802;50.846;7.958;2024-03-08T12:55:57;11.15;;;4.93;;
78508;SDS011;67802;50.846;7.958;2024-03-08T12:58:23;9.25;;;4.80;;
78508;SDS011;67802;50.846;7.958;2024-03-08T13:00:48;7.75;;;4.60;;
78508;SDS011;67802;50.846;7.958;2024-03-08T13:03:14;9.00;;;5.15;;
78508;SDS011;67802;50.846;7.958;2024-03-08T13:05:39;10.05;;;5.47;;
78508;SDS011;67802;50.846;7.958;2024-03-08T13:08:05;9.32;;;5.28;;
78508;SDS011;67802;50.846;7.958;2024-03-08T13:10:37;9.02;;;5.50;;
78508;SDS011;67802;50.846;7.958;2024-03-08T13:13:03;7.43;;;4.55;;
78508;SDS011;67802;50.846;7.958;2024-03-08T13:15:29;8.30;;;5.03;;
78508;SDS011;67802;50.846;7.958;2024-03-08T13:17:55;8.05;;;5.03;;
78508;SDS011;67802;50.846;7.958;2024-03-08T13:20:22;9.27;;;5.03;;
78508;SDS011;67802;50.846;7.958;2024-03-08T13:22:48;8.48;;;5.07;;
78508;SDS011;67802;50.846;7.958;2024-03-08T13:25:13;9.27;;;5.30;;
78508;SDS011;67802;50.846;7.958;2024-03-08T13:27:41;9.07;;;5.38;;
78508;SDS011;67802;50.846;7.958;2024-03-08T13:30:10;9.82;;;5.28;;
78508;SDS011;67802;50.846;7.958;2024-03-08T13:32:39;9.13;;;4.82;;
78508;SDS011;67802;50.846;7.958;2024-03-08T13:35:05;8.13;;;4.93;;
78508;SDS011;67802;50.846;7.958;2024-03-08T13:37:37;8.57;;;5.45;;
78508;SDS011;67802;50.846;7.958;2024-03-08T13:40:06;9.52;;;5.85;;
78508;SDS011;67802;50.846;7.958;2024-03-08T13:42:36;8.65;;;5.45;;
78508;SDS011;67802;50.846;7.958;2024-03-08T13:45:03;9.15;;;5.38;;
78508;SDS011;67802;50.846;7.958;2024-03-08T13:47:29;8.55;;;5.28;;
78508;SDS011;67802;50.846;7.958;2024-03-08T13:49:55;8.80;;;5.20;;
78508;SDS011;67802;50.846;7.958;2024-03-08T13:52:20;8.63;;;5.50;;
78508;SDS011;67802;50.846;7.958;2024-03-08T13:54:45;9.40;;;5.90;;
78508;SDS011;67802;50.846;7.958;2024-03-08T13:57:12;8.93;;;5.70;;
78508;SDS011;67802;50.846;7.958;2024-03-08T13:59:37;9.52;;;5.68;;
78508;SDS011;67802;50.846;7.958;2024-03-08T14:02:03;9.27;;;5.55;;
78508;SDS011;67802;50.846;7.958;2024-03-08T14:04:29;10.25;;;5.75;;
78508;SDS011;67802;50.846;7.958;2024-03-08T14:06:54;8.77;;;5.07;;
78508;SDS011;67802;50.846;7.958;2024-03-08T14:09:24;8.80;;;5.15;;
78508;SDS011;67802;50.846;7.958;2024-03-08T14:11:50;8.02;;;4.95;;
78508;SDS011;67802;50.846;7.958;2024-03-08T14:14:19;10.27;;;5.43;;
78508;SDS011;67802;50.846;7.958;2024-03-08T14:16:45;9.35;;;5.45;;
78508;SDS011;67802;50.846;7.958;2024-03-08T14:19:11;10.02;;;5.85;;
78508;SDS011;67802;50.846;7.958;2024-03-08T14:21:38;8.88;;;5.20;;
78508;SDS011;67802;50.846;7.958;2024-03-08T14:24:04;9.48;;;5.57;;
78508;SDS011;67802;50.846;7.958;2024-03-08T14:26:30;8.43;;;4.88;;
78508;SDS011;67802;50.846;7.958;2024-03-08T14:28:55;9.18;;;4.82;;
78508;SDS011;67802;50.846;7.958;2024-03-08T14:31:22;8.30;;;5.18;;
78508;SDS011;67802;50.846;7.958;2024-03-08T14:33:50;9.07;;;5.15;;
78508;SDS011;67802;50.846;7.958;2024-03-08T14:36:16;9.45;;;5.22;;
78508;SDS011;67802;50.846;7.958;2024-03-08T14:38:44;8.60;;;5.00;;
78508;SDS011;67802;50.846;7.958;2024-03-08T14:41:12;9.45;;;5.22;;
78508;SDS011;67802;50.846;7.958;2024-03-08T14:43:39;9.93;;;4.88;;
78508;SDS011;67802;50.846;7.958;2024-03-08T14:46:05;7.75;;;4.47;;
78508;SDS011;67802;50.846;7.958;2024-03-08T14:48:30;8.82;;;4.90;;
78508;SDS011;67802;50.846;7.958;2024-03-08T14:50:56;8.10;;;4.73;;
78508;SDS011;67802;50.846;7.958;2024-03-08T14:53:21;7.22;;;4.47;;
78508;SDS011;67802;50.846;7.958;2024-03-08T14:55:47;9.00;;;5.25;;
78508;SDS011;67802;50.846;7.958;2024-03-08T14:58:13;8.13;;;4.75;;
78508;SDS011;67802;50.846;7.958;2024-03-08T15:00:38;9.10;;;5.05;;
78508;SDS011;67802;50.846;7.958;2024-03-08T15:03:06;8.38;;;4.90;;